Aeroporto :
LOGIN :

Iscrizione | Disclaimer

   EN    FR    IT 

 










Sommario :    VFR   VFR Marginale   IFR   IFR Intensivo   IFR Molto Intensivo
Visibilità : 
Base nubi : 
>= 8 km
>= 3000ft
5 / 8 km
1000 / 3000 ft
1500m / 5 km
500 / 1000 ft
800 / 1500m
200 / 500 ft
< 800m
< 200 ft
Simboli :   Temporali  Nebbia  Neve Forte  Precipitazioni Forti  Vento > 20 kt
SIGMETs :   Varie  Temporali  Ghiacco  Turbolenza  Onda orograficha  Ceneri Vulcaniche






- Altitudine del aeroporto : 102 ft
- Codice IATA : CNG


LFBG - Cognac

ULTIMO METAR :
  • 190300Z AUTO 36005KT 9999 ///TCU 19/19 Q1011

METARs OBSOLETI :
  • 190230Z AUTO 00000KT 9999 FEW018/// BKN082/// BKN120/// ///CB 20/18 Q1011
  • 190200Z AUTO 09004KT 040V150 6000 RA FEW041/// BKN068/// BKN082/// ///CB 20/18 Q1011
  • 190130Z AUTO 10004KT 070V140 9999 ///CB 21/17 Q1011
  • 190100Z AUTO 08006KT 9999 ///TCU 21/17 Q1011
  • 190030Z AUTO 06007KT CAVOK 21/17 Q1011

TAF TAF LFBG
Valido dal 18 a 09 ore il 19 a 09 ore UTC


180800Z 1809/1909 11008KT CAVOK
BECMG 1810/1812 19008KT
TEMPO 1816/1903 -SHRA BKN100TCU
TEMPO 1818/1824 2000 TSRA BKN070CB
BECMG 1900/1902 VRB02KT



MetMap, La meteo Aeronautica in un colpo d'occhio ! - Copyright ORBIFLY Dicembre 2007 - Disclaimer

ORBIFLY MET'MAP TEAM :

Programmazione e sviluppo : Alexandra Zaïnal
Concezione : Baudouin d'Aumeries
Aiuto per la programmazione : Marc-Olivier Méhu
Supporto tecnico e logistico : Manuel Goepfert
Aiuto per la traduzione : Arnaldo La Scala

Contatto : metmap@orbifly.com




FONTI E CREDITI :

   NOAA